createdAt,value
2016-02-29T00:00:09.355Z,3.15
2016-02-29T00:01:09.389Z,3.11
2016-02-29T00:02:09.360Z,3.13
2016-02-29T00:03:09.348Z,3.03
2016-02-29T00:04:09.365Z,3
2016-02-29T00:05:09.353Z,3.18
2016-02-29T00:06:09.371Z,3.12
2016-02-29T00:07:09.358Z,3.13
2016-02-29T00:08:09.376Z,3.12
2016-02-29T00:09:09.348Z,3.05
2016-02-29T00:10:09.351Z,3.13
2016-02-29T00:11:09.370Z,3.15
2016-02-29T00:12:09.356Z,2.98
2016-02-29T00:13:09.359Z,3.09
2016-02-29T00:14:09.347Z,3.01
2016-02-29T00:15:09.364Z,3.05
2016-02-29T00:16:09.352Z,3.03
2016-02-29T00:17:09.355Z,3.05
2016-02-29T00:18:09.342Z,3.13
2016-02-29T00:19:09.344Z,3.13
2016-02-29T00:20:09.347Z,3.09
2016-02-29T00:21:09.349Z,3.16
2016-02-29T00:22:09.352Z,3.11
2016-02-29T00:23:09.355Z,3.11
2016-02-29T00:24:09.357Z,3.18
2016-02-29T00:25:09.344Z,3.13
2016-02-29T00:26:09.362Z,3.11
2016-02-29T00:27:09.350Z,3.13
2016-02-29T00:28:09.352Z,3.16
2016-02-29T00:29:09.355Z,3.16
2016-02-29T00:30:09.348Z,3.15
2016-02-29T00:31:09.350Z,3.03
2016-02-29T00:32:09.353Z,3.06
2016-02-29T00:33:09.355Z,3.15
2016-02-29T00:34:09.342Z,3.15
2016-02-29T00:35:09.345Z,3.11
2016-02-29T00:36:09.347Z,3.05
2016-02-29T00:37:09.350Z,3.11
2016-02-29T00:38:09.353Z,3.09
2016-02-29T00:39:09.355Z,3.11
2016-02-29T00:40:09.342Z,3.08
2016-02-29T00:41:09.345Z,3.03
2016-02-29T00:42:09.348Z,3.12
2016-02-29T00:43:09.335Z,2.97
2016-02-29T00:44:09.338Z,2.98
2016-02-29T00:45:09.341Z,3.06
2016-02-29T00:46:09.343Z,2.95
2016-02-29T00:47:09.346Z,3.06
2016-02-29T00:48:09.349Z,3
2016-02-29T00:49:09.351Z,2.95
2016-02-29T00:50:09.354Z,3.03
2016-02-29T00:51:09.357Z,3.06
2016-02-29T00:52:09.343Z,3.01
2016-02-29T00:53:09.346Z,2.97
2016-02-29T00:54:09.349Z,2.9
2016-02-29T00:55:09.351Z,2.88
2016-02-29T00:56:09.354Z,2.88
2016-02-29T00:57:09.326Z,2.93
2016-02-29T00:58:09.345Z,2.97
2016-02-29T00:59:09.347Z,2.83
2016-02-29T01:00:09.334Z,2.95
2016-02-29T01:01:09.336Z,3.05
2016-02-29T01:02:09.339Z,2.94
2016-02-29T01:03:09.358Z,2.94
2016-02-29T01:04:09.345Z,2.91
2016-02-29T01:05:09.331Z,2.97
2016-02-29T01:06:09.334Z,2.97
2016-02-29T01:07:09.337Z,2.98
2016-02-29T01:08:09.339Z,3
2016-02-29T01:09:09.327Z,3.06
2016-02-29T01:10:09.329Z,3.06
2016-02-29T01:11:09.332Z,2.94
2016-02-29T01:12:09.335Z,3.08
2016-02-29T01:13:09.338Z,3.06
2016-02-29T01:14:09.341Z,3
2016-02-29T01:15:09.343Z,3.01
2016-02-29T01:16:09.346Z,3.11
2016-02-29T01:17:09.333Z,3
2016-02-29T01:18:09.336Z,3.13
2016-02-29T01:19:09.338Z,3.08
2016-02-29T01:20:09.340Z,3.16
2016-02-29T01:21:09.344Z,3.15
2016-02-29T01:22:09.330Z,3.19
2016-02-29T01:23:09.318Z,3.22
2016-02-29T01:24:09.336Z,3.13
2016-02-29T01:25:09.338Z,3.24
2016-02-29T01:26:09.326Z,3.15
2016-02-29T01:27:09.329Z,3.15
2016-02-29T01:28:09.332Z,3.13
2016-02-29T01:29:09.317Z,3.09
2016-02-29T01:30:09.336Z,3.11
2016-02-29T01:31:09.323Z,3.13
2016-02-29T01:32:09.342Z,3.16
2016-02-29T01:33:09.328Z,3.12
2016-02-29T01:34:09.317Z,3.08
2016-02-29T01:35:09.381Z,3.03
2016-02-29T01:36:09.322Z,3
2016-02-29T01:37:09.340Z,2.95
2016-02-29T01:38:09.327Z,3
2016-02-29T01:39:09.329Z,2.93
2016-02-29T01:40:09.316Z,2.91
2016-02-29T01:41:09.319Z,2.88
2016-02-29T01:42:09.338Z,2.95
2016-02-29T01:43:09.324Z,2.88
2016-02-29T01:44:09.343Z,2.8
2016-02-29T01:45:09.314Z,2.87
2016-02-29T01:46:09.333Z,2.8
2016-02-29T01:47:09.319Z,2.77
2016-02-29T01:48:09.322Z,2.73
2016-02-29T01:49:09.325Z,2.79
2016-02-29T01:50:09.343Z,2.7
2016-02-29T01:51:09.330Z,2.68
2016-02-29T01:52:09.318Z,2.8
2016-02-29T01:53:09.321Z,2.76
2016-02-29T01:54:09.324Z,2.68
2016-02-29T01:55:09.310Z,2.64
2016-02-29T01:56:09.172Z,2.64
2016-02-29T01:57:09.316Z,2.64
2016-02-29T01:58:09.334Z,2.69
2016-02-29T01:59:09.305Z,2.61
2016-02-29T02:00:09.337Z,2.72
2016-02-29T02:01:09.293Z,2.68
2016-02-29T02:02:09.297Z,2.65
2016-02-29T02:03:09.268Z,2.76
2016-02-29T02:04:09.256Z,2.61
2016-02-29T02:05:09.261Z,2.68
2016-02-29T02:06:09.242Z,2.7
2016-02-29T02:07:09.225Z,2.69
2016-02-29T02:08:09.222Z,2.62
2016-02-29T02:09:09.219Z,2.68
2016-02-29T02:10:09.201Z,2.7
2016-02-29T02:11:09.202Z,2.68
2016-02-29T02:12:09.203Z,2.65
2016-02-29T02:13:09.203Z,2.68
2016-02-29T02:14:09.204Z,2.68
2016-02-29T02:15:09.190Z,2.7
2016-02-29T02:16:09.207Z,2.77
2016-02-29T02:17:09.194Z,2.79
2016-02-29T02:18:09.211Z,2.77
2016-02-29T02:19:09.197Z,2.68
2016-02-29T02:20:09.215Z,2.79
2016-02-29T02:21:09.186Z,2.9
2016-02-29T02:22:09.190Z,2.85
2016-02-29T02:23:09.192Z,2.88
2016-02-29T02:24:09.195Z,2.85
2016-02-29T02:25:09.214Z,2.87
2016-02-29T02:26:09.184Z,2.8
2016-02-29T02:27:09.219Z,2.85
2016-02-29T02:28:09.189Z,2.85
2016-02-29T02:29:09.192Z,2.91
2016-02-29T02:30:09.194Z,2.83
2016-02-29T02:31:09.198Z,2.87
2016-02-29T02:32:09.186Z,2.87
2016-02-29T02:33:09.188Z,2.91
2016-02-29T02:34:09.206Z,2.97
2016-02-29T02:35:09.193Z,2.93
2016-02-29T02:36:09.180Z,2.9
2016-02-29T02:37:09.183Z,3.06
2016-02-29T02:38:09.185Z,2.9
2016-02-29T02:39:09.188Z,2.95
2016-02-29T02:40:09.191Z,3.01
2016-02-29T02:41:09.177Z,2.93
2016-02-29T02:42:09.196Z,3.09
2016-02-29T02:43:09.183Z,3
2016-02-29T02:44:09.186Z,3.03
2016-02-29T02:45:09.188Z,2.98
2016-02-29T02:46:09.191Z,3
2016-02-29T02:47:09.179Z,3.01
2016-02-29T02:48:09.181Z,2.98
2016-02-29T02:49:09.183Z,3.03
2016-02-29T02:50:09.187Z,3.03
2016-02-29T02:51:09.189Z,3.06
2016-02-29T02:52:09.176Z,3.01
2016-02-29T02:53:09.179Z,3
2016-02-29T02:54:09.166Z,2.98
2016-02-29T02:55:09.169Z,2.94
2016-02-29T02:56:09.203Z,3
2016-02-29T02:57:09.174Z,2.95
2016-02-29T02:58:09.178Z,2.98
2016-02-29T02:59:09.180Z,2.94
2016-02-29T03:00:09.183Z,2.88
2016-02-29T03:01:09.185Z,2.97
2016-02-29T03:02:09.172Z,2.93
2016-02-29T03:03:09.175Z,3.01
2016-02-29T03:04:09.178Z,2.94
2016-02-29T03:05:09.180Z,2.95
2016-02-29T03:06:09.183Z,2.85
2016-02-29T03:07:09.186Z,2.95
2016-02-29T03:08:09.188Z,2.94
2016-02-29T03:09:09.175Z,2.91
2016-02-29T03:10:09.178Z,2.98
2016-02-29T03:11:09.165Z,3
2016-02-29T03:12:09.168Z,2.87
2016-02-29T03:13:09.171Z,2.87
2016-02-29T03:14:09.173Z,3
2016-02-29T03:15:09.176Z,2.93
2016-02-29T03:16:09.179Z,2.9
2016-02-29T03:17:09.166Z,2.91
2016-02-29T03:18:09.168Z,3
2016-02-29T03:19:09.171Z,2.97
2016-02-29T03:20:09.173Z,2.88
2016-02-29T03:21:09.176Z,2.93
2016-02-29T03:22:09.162Z,2.93
2016-02-29T03:23:09.166Z,2.93
2016-02-29T03:24:09.168Z,2.85
2016-02-29T03:25:09.171Z,2.97
2016-02-29T03:26:09.158Z,2.9
2016-02-29T03:27:09.161Z,2.94
2016-02-29T03:28:09.179Z,2.93
2016-02-29T03:29:09.167Z,2.87
2016-02-29T03:30:09.170Z,2.91
2016-02-29T03:31:09.172Z,2.87
2016-02-29T03:32:09.175Z,3
2016-02-29T03:33:09.161Z,2.94
2016-02-29T03:34:09.165Z,3
2016-02-29T03:35:09.167Z,3.01
2016-02-29T03:36:09.170Z,3.06
2016-02-29T03:37:09.172Z,2.97
2016-02-29T03:38:09.160Z,2.91
2016-02-29T03:39:09.162Z,2.93
2016-02-29T03:40:09.165Z,2.95
2016-02-29T03:41:09.167Z,2.98
2016-02-29T03:42:09.216Z,2.98
2016-02-29T03:43:09.158Z,3.08
2016-02-29T03:44:09.176Z,2.98
2016-02-29T03:45:09.162Z,3.06
2016-02-29T03:46:09.149Z,2.98
2016-02-29T03:47:09.152Z,3
2016-02-29T03:48:09.155Z,3.03
2016-02-29T03:49:09.158Z,3.09
2016-02-29T03:50:09.176Z,3.03
2016-02-29T03:51:08.991Z,3
2016-02-29T03:52:09.150Z,3
2016-02-29T03:53:09.154Z,2.98
2016-02-29T03:54:09.156Z,3.06
2016-02-29T03:55:09.159Z,3.09
2016-02-29T03:56:09.145Z,3.08
2016-02-29T03:57:09.148Z,3.01
2016-02-29T03:58:09.151Z,3.06
2016-02-29T03:59:09.154Z,3.12
2016-02-29T04:00:09.140Z,3.11
2016-02-29T04:01:09.143Z,3.15
2016-02-29T04:02:09.162Z,3.05
2016-02-29T04:03:09.149Z,3.15
2016-02-29T04:04:09.167Z,3.15
2016-02-29T04:05:09.136Z,3.06
2016-02-29T04:06:09.139Z,3.16
2016-02-29T04:07:09.142Z,3.01
2016-02-29T04:08:09.144Z,3.06
2016-02-29T04:09:09.130Z,3.11
2016-02-29T04:10:09.149Z,3.18
2016-02-29T04:11:09.152Z,3.15
2016-02-29T04:12:09.154Z,3.13
2016-02-29T04:13:09.141Z,3.13
2016-02-29T04:14:09.144Z,3.13
2016-02-29T04:15:09.132Z,3.09
2016-02-29T04:16:09.149Z,3.13
2016-02-29T04:17:09.168Z,3.13
2016-02-29T04:18:09.154Z,3.11
2016-02-29T04:19:09.143Z,3.06
2016-02-29T04:20:09.145Z,3.05
2016-02-29T04:21:09.148Z,3.11
2016-02-29T04:22:09.151Z,3.16
2016-02-29T04:23:09.137Z,3.15
2016-02-29T04:24:09.156Z,3.16
2016-02-29T04:25:09.126Z,3.19
2016-02-29T04:26:09.129Z,3.18
2016-02-29T04:27:09.132Z,3.18
2016-02-29T04:28:09.121Z,3.15
2016-02-29T04:29:09.155Z,3.19
2016-02-29T04:30:09.141Z,3.21
2016-02-29T04:31:09.129Z,3.22
2016-02-29T04:32:09.132Z,3.12
2016-02-29T04:33:09.134Z,3.21
2016-02-29T04:34:09.137Z,3.16
2016-02-29T04:35:09.123Z,3.19
2016-02-29T04:36:09.127Z,3.27
2016-02-29T04:37:09.129Z,3.22
2016-02-29T04:38:09.132Z,3.31
2016-02-29T04:39:09.134Z,3.34
2016-02-29T04:40:09.121Z,3.31
2016-02-29T04:41:09.124Z,3.3
2016-02-29T04:42:09.142Z,3.4
2016-02-29T04:43:09.129Z,3.36
2016-02-29T04:44:09.132Z,3.4
2016-02-29T04:45:09.119Z,3.31
2016-02-29T04:46:09.122Z,3.19
2016-02-29T04:47:09.140Z,3.3
2016-02-29T04:48:09.127Z,3.27
2016-02-29T04:49:09.115Z,3.26
2016-02-29T04:50:09.117Z,3.45
2016-02-29T04:51:09.136Z,3.29
2016-02-29T04:52:09.122Z,3.43
2016-02-29T04:53:09.125Z,3.22
2016-02-29T04:54:09.128Z,3.29
2016-02-29T04:55:09.114Z,3.3
2016-02-29T04:56:09.117Z,3.36
2016-02-29T04:57:09.167Z,3.29
2016-02-29T04:58:09.123Z,3.34
2016-02-29T04:59:09.110Z,3.31
2016-02-29T05:00:09.128Z,3.43
2016-02-29T05:01:09.115Z,3.45
2016-02-29T05:02:09.119Z,3.26
2016-02-29T05:03:09.105Z,3.24
2016-02-29T05:04:09.108Z,3.45
2016-02-29T05:05:09.126Z,3.37
2016-02-29T05:06:09.116Z,3.26
2016-02-29T05:07:09.104Z,3.37
2016-02-29T05:08:09.121Z,3.34
2016-02-29T05:09:09.124Z,3.3
2016-02-29T05:10:09.112Z,3.31
2016-02-29T05:11:09.114Z,3.29
2016-02-29T05:12:09.148Z,3.33
2016-02-29T05:13:09.119Z,3.34
2016-02-29T05:14:09.122Z,3.33
2016-02-29T05:15:09.110Z,3.29
2016-02-29T05:16:09.112Z,3.33
2016-02-29T05:17:09.115Z,3.37
2016-02-29T05:18:09.117Z,3.36
2016-02-29T05:19:09.120Z,3.34
2016-02-29T05:20:09.138Z,3.33
2016-02-29T05:21:09.109Z,3.43
2016-02-29T05:22:09.112Z,3.3
2016-02-29T05:23:09.114Z,3.31
2016-02-29T05:24:09.117Z,3.31
2016-02-29T05:25:09.105Z,3.31
2016-02-29T05:26:09.107Z,3.37
2016-02-29T05:27:09.110Z,3.36
2016-02-29T05:28:09.113Z,3.31
2016-02-29T05:29:09.116Z,3.34
2016-02-29T05:30:09.118Z,3.27
2016-02-29T05:31:09.105Z,3.31
2016-02-29T05:32:09.107Z,3.29
2016-02-29T05:33:09.110Z,3.29
2016-02-29T05:34:09.098Z,3.33
2016-02-29T05:35:09.100Z,3.18
2016-02-29T05:36:09.103Z,3.27
2016-02-29T05:37:09.105Z,3.34
2016-02-29T05:38:09.108Z,3.15
2016-02-29T05:39:09.111Z,3.21
2016-02-29T05:40:09.114Z,3.19
2016-02-29T05:41:09.101Z,3.22
2016-02-29T05:42:09.026Z,3.24
2016-02-29T05:43:09.106Z,3.3
2016-02-29T05:44:09.110Z,3.31
2016-02-29T05:45:09.095Z,3.22
2016-02-29T05:46:09.115Z,3.19
2016-02-29T05:47:09.102Z,3.29
2016-02-29T05:48:09.089Z,3.3
2016-02-29T05:49:09.092Z,3.16
2016-02-29T05:50:09.095Z,3.21
2016-02-29T05:51:09.097Z,3.15
2016-02-29T05:52:09.100Z,3.15
2016-02-29T05:53:09.087Z,3.16
2016-02-29T05:54:09.105Z,3.18
2016-02-29T05:55:09.092Z,3.19
2016-02-29T05:56:09.094Z,3.19
2016-02-29T05:57:09.266Z,3.15
2016-02-29T05:58:08.983Z,3.18
2016-02-29T05:59:08.941Z,3.18
2016-02-29T06:00:09.153Z,3.19
2016-02-29T06:01:09.051Z,3.16
2016-02-29T06:02:09.116Z,3.15
2016-02-29T06:03:09.103Z,3.16
2016-02-29T06:04:09.106Z,3.19
2016-02-29T06:05:09.124Z,3.18
2016-02-29T06:06:09.097Z,3.16
2016-02-29T06:07:09.083Z,3.21
2016-02-29T06:08:09.086Z,3.15
2016-02-29T06:09:09.088Z,3.18
2016-02-29T06:10:09.091Z,3.19
2016-02-29T06:11:09.094Z,3.19
2016-02-29T06:12:09.097Z,3.16
2016-02-29T06:13:09.083Z,3.13
2016-02-29T06:14:09.086Z,3.29
2016-02-29T06:15:09.088Z,3.21
2016-02-29T06:16:09.092Z,3.29
2016-02-29T06:17:09.094Z,3.26
2016-02-29T06:18:09.089Z,3.22
2016-02-29T06:19:09.092Z,3.22
2016-02-29T06:20:09.079Z,3.19
2016-02-29T06:21:09.082Z,3.22
2016-02-29T06:22:09.084Z,3.29
2016-02-29T06:23:09.087Z,3.3
2016-02-29T06:24:09.090Z,3.26
2016-02-29T06:25:09.077Z,3.15
2016-02-29T06:26:09.095Z,3.29
2016-02-29T06:27:09.113Z,3.15
2016-02-29T06:28:09.084Z,3.31
2016-02-29T06:29:09.087Z,3.41
2016-02-29T06:30:09.075Z,3.33
2016-02-29T06:31:09.078Z,3.22
2016-02-29T06:32:09.080Z,3.27
2016-02-29T06:33:09.083Z,3.27
2016-02-29T06:34:09.085Z,3.36
2016-02-29T06:35:09.072Z,3.37
2016-02-29T06:36:09.075Z,3.37
2016-02-29T06:37:09.078Z,3.43
2016-02-29T06:38:09.081Z,3.53
2016-02-29T06:39:09.083Z,3.37
2016-02-29T06:40:09.070Z,3.52
2016-02-29T06:41:09.072Z,3.49
2016-02-29T06:42:09.075Z,3.58
2016-02-29T06:43:09.078Z,3.61
2016-02-29T06:44:09.066Z,3.58
2016-02-29T06:45:09.083Z,3.61
2016-02-29T06:46:09.071Z,3.67
2016-02-29T06:47:09.073Z,3.74
2016-02-29T06:48:09.092Z,3.7
2016-02-29T06:49:09.079Z,3.73
2016-02-29T06:50:09.066Z,3.7
2016-02-29T06:51:09.068Z,3.84
2016-02-29T06:52:09.087Z,3.84
2016-02-29T06:53:09.090Z,3.89
2016-02-29T06:54:09.076Z,3.76
2016-02-29T06:55:09.063Z,3.74
2016-02-29T06:56:09.066Z,3.86
2016-02-29T06:57:08.913Z,3.78
2016-02-29T06:58:09.071Z,3.76
2016-02-29T06:59:09.074Z,3.82
2016-02-29T07:00:09.061Z,3.77
2016-02-29T07:01:09.065Z,3.82
2016-02-29T07:02:09.067Z,3.81
2016-02-29T07:03:09.070Z,3.91
2016-02-29T07:04:09.072Z,3.94
2016-02-29T07:05:09.075Z,3.95
2016-02-29T07:06:09.062Z,4
2016-02-29T07:07:09.064Z,3.95
2016-02-29T07:08:09.083Z,4.04
2016-02-29T07:09:09.070Z,4.03
2016-02-29T07:10:09.072Z,4.06
2016-02-29T07:11:09.060Z,4.13
2016-02-29T07:12:09.078Z,4.04
2016-02-29T07:13:09.065Z,4.04
2016-02-29T07:14:09.130Z,4.04
2016-02-29T07:15:09.071Z,4.09
2016-02-29T07:16:09.074Z,4.03
2016-02-29T07:17:09.060Z,4.06
2016-02-29T07:18:09.063Z,4.06
2016-02-29T07:19:09.066Z,3.99
2016-02-29T07:20:09.069Z,4.04
2016-02-29T07:21:09.055Z,4
2016-02-29T07:22:09.074Z,3.95
2016-02-29T07:23:09.076Z,3.94
2016-02-29T07:24:08.907Z,4.02
2016-02-29T07:25:09.066Z,4.09
2016-02-29T07:26:09.068Z,3.99
2016-02-29T07:27:09.088Z,4.1
2016-02-29T07:28:09.059Z,4.12
2016-02-29T07:29:09.062Z,4.07
2016-02-29T07:30:09.064Z,4.1
2016-02-29T07:31:09.067Z,4.16
2016-02-29T07:32:09.054Z,4.12
2016-02-29T07:33:09.056Z,4.13
2016-02-29T07:34:09.075Z,4.04
2016-02-29T07:35:09.046Z,4.18
2016-02-29T07:36:09.048Z,4.1
2016-02-29T07:37:09.051Z,4.04
2016-02-29T07:38:09.054Z,4.14
2016-02-29T07:39:09.056Z,4.1
2016-02-29T07:40:09.060Z,4.06
2016-02-29T07:41:09.062Z,4.09
2016-02-29T07:42:09.065Z,4.04
2016-02-29T07:43:09.067Z,4.06
2016-02-29T07:44:09.055Z,4.16
2016-02-29T07:45:09.058Z,4.22
2016-02-29T07:46:09.061Z,4.18
2016-02-29T07:47:09.047Z,4.21
2016-02-29T07:48:09.050Z,4.22
2016-02-29T07:49:09.053Z,4.31
2016-02-29T07:50:09.055Z,4.24
2016-02-29T07:51:09.058Z,4.27
2016-02-29T07:52:09.060Z,4.2
2016-02-29T07:53:08.907Z,4.34
2016-02-29T07:54:09.066Z,4.38
2016-02-29T07:55:09.054Z,4.42
2016-02-29T07:56:08.899Z,4.3
2016-02-29T07:57:09.059Z,4.49
2016-02-29T07:58:09.062Z,4.43
2016-02-29T07:59:09.065Z,4.48
2016-02-29T08:00:09.051Z,4.46
2016-02-29T08:01:09.054Z,4.49
2016-02-29T08:02:09.056Z,4.48
2016-02-29T08:03:09.059Z,4.5
2016-02-29T08:04:09.045Z,4.43
2016-02-29T08:05:09.064Z,4.42
2016-02-29T08:06:09.068Z,4.42
2016-02-29T08:07:09.054Z,4.36
2016-02-29T08:08:09.056Z,4.24
2016-02-29T08:09:09.075Z,4.2
2016-02-29T08:10:09.078Z,4.18
2016-02-29T08:11:09.050Z,4.18
2016-02-29T08:12:09.053Z,4.13
2016-02-29T08:13:09.055Z,4.22
2016-02-29T08:14:09.058Z,4.28
2016-02-29T08:15:09.060Z,4.22
2016-02-29T08:16:09.063Z,4.38
2016-02-29T08:17:09.049Z,4.43
2016-02-29T08:18:09.052Z,4.4
2016-02-29T08:19:09.055Z,4.48
2016-02-29T08:20:09.058Z,4.56
2016-02-29T08:21:09.044Z,4.61
2016-02-29T08:22:08.891Z,4.61
2016-02-29T08:23:09.049Z,4.67
2016-02-29T08:24:09.053Z,4.74
2016-02-29T08:25:09.619Z,4.7
2016-02-29T08:26:09.058Z,4.78
2016-02-29T08:27:09.061Z,4.82
2016-02-29T08:28:09.049Z,4.92
2016-02-29T08:29:09.066Z,4.98
2016-02-29T08:30:09.053Z,4.97
2016-02-29T08:31:09.056Z,4.97
2016-02-29T08:32:09.075Z,4.78
2016-02-29T08:33:09.046Z,4.75
2016-02-29T08:34:09.049Z,4.68
2016-02-29T08:35:09.067Z,4.67
2016-02-29T08:36:09.054Z,4.67
2016-02-29T08:37:09.056Z,4.57
2016-02-29T08:38:09.075Z,4.63
2016-02-29T08:39:09.062Z,4.58
2016-02-29T08:40:09.050Z,4.63
2016-02-29T08:41:09.053Z,4.66
2016-02-29T08:42:09.055Z,4.67
2016-02-29T08:43:09.058Z,4.66
2016-02-29T08:44:09.060Z,4.75
2016-02-29T08:45:09.064Z,4.79
2016-02-29T08:46:09.050Z,4.74
2016-02-29T08:47:09.053Z,4.82
2016-02-29T08:48:09.055Z,4.89
2016-02-29T08:49:09.074Z,4.95
2016-02-29T08:50:09.076Z,5.07
2016-02-29T08:51:09.047Z,5.15
2016-02-29T08:52:09.049Z,5.25
2016-02-29T08:53:09.053Z,5.28
2016-02-29T08:54:09.072Z,5.37
2016-02-29T08:55:09.058Z,5.38
2016-02-29T08:56:09.061Z,5.43
2016-02-29T08:57:09.048Z,5.41
2016-02-29T08:58:09.066Z,5.55
2016-02-29T08:59:09.053Z,5.56
2016-02-29T09:00:09.056Z,5.54
2016-02-29T09:01:09.060Z,5.52
2016-02-29T09:02:09.062Z,5.56
2016-02-29T09:03:09.080Z,5.54
2016-02-29T09:04:09.067Z,5.47
2016-02-29T09:05:09.069Z,5.4
2016-02-29T09:06:09.056Z,5.36
2016-02-29T09:07:09.075Z,5.37
2016-02-29T09:08:09.045Z,5.43
2016-02-29T09:09:09.064Z,5.4
2016-02-29T09:10:09.035Z,5.47
2016-02-29T09:11:09.085Z,5.43
2016-02-29T09:12:09.040Z,5.38
2016-02-29T09:13:09.058Z,5.33
2016-02-29T09:14:09.046Z,5.26
2016-02-29T09:15:09.064Z,5.25
2016-02-29T09:16:09.052Z,5.19
2016-02-29T09:17:09.069Z,5.2
2016-02-29T09:18:09.071Z,5.15
2016-02-29T09:19:09.060Z,5.23
2016-02-29T09:20:09.047Z,5.31
2016-02-29T09:21:09.065Z,5.28
2016-02-29T09:22:09.068Z,5.33
2016-02-29T09:23:09.054Z,5.34
2016-02-29T09:24:09.073Z,5.26
2016-02-29T09:25:09.669Z,5.36
2016-02-29T09:26:09.062Z,5.34
2016-02-29T09:27:09.051Z,5.33
2016-02-29T09:28:09.053Z,5.41
2016-02-29T09:29:09.056Z,5.38
2016-02-29T09:30:09.058Z,5.36
2016-02-29T09:31:09.060Z,5.44
2016-02-29T09:32:09.063Z,5.4
2016-02-29T09:33:09.067Z,5.44
2016-02-29T09:34:09.053Z,5.43
2016-02-29T09:35:09.056Z,5.33
2016-02-29T09:36:09.058Z,5.41
2016-02-29T09:37:09.061Z,5.49
2016-02-29T09:38:09.064Z,5.49
2016-02-29T09:39:09.051Z,5.54
2016-02-29T09:40:09.069Z,5.49
2016-02-29T09:41:09.056Z,5.51
2016-02-29T09:42:09.058Z,5.61
2016-02-29T09:43:09.077Z,5.69
2016-02-29T09:44:09.063Z,5.74
2016-02-29T09:45:09.051Z,5.77
2016-02-29T09:46:09.054Z,5.76
2016-02-29T09:47:09.057Z,5.73
2016-02-29T10:16:20.121Z,6.25
2016-02-29T10:17:20.123Z,6.35
2016-02-29T10:18:20.111Z,6.38
2016-02-29T10:19:20.129Z,6.36
2016-02-29T10:20:20.116Z,6.39
2016-02-29T10:21:20.134Z,6.34
2016-02-29T10:22:20.168Z,6.41
2016-02-29T10:23:20.108Z,6.41
2016-02-29T10:24:20.111Z,6.39
2016-02-29T10:25:20.129Z,6.44
2016-02-29T10:26:20.117Z,6.43
2016-02-29T10:27:20.119Z,6.54
2016-02-29T10:28:20.122Z,6.53
2016-02-29T10:29:20.125Z,6.53
2016-02-29T10:30:20.128Z,6.47
2016-02-29T10:31:20.130Z,6.47
2016-02-29T10:32:20.117Z,6.38
2016-02-29T10:33:20.119Z,6.32
2016-02-29T10:34:20.138Z,6.32
2016-02-29T10:35:20.125Z,6.31
2016-02-29T10:36:20.128Z,6.31
2016-02-29T10:37:20.115Z,6.13
2016-02-29T10:38:20.118Z,6.12
2016-02-29T10:39:20.121Z,6.13
2016-02-29T10:40:20.138Z,6.09
2016-02-29T10:41:20.126Z,6.19
2016-02-29T10:42:20.129Z,6.13
2016-02-29T10:43:20.131Z,6.12
2016-02-29T10:44:20.149Z,6.29
2016-02-29T10:45:20.137Z,6.26
2016-02-29T10:46:20.155Z,6.12
2016-02-29T10:47:20.142Z,6.15
2016-02-29T10:48:20.129Z,6.13
2016-02-29T10:49:20.132Z,6.02
2016-02-29T10:50:20.134Z,6.07
2016-02-29T10:51:20.168Z,6.01
2016-02-29T10:52:20.156Z,6.01
2016-02-29T10:53:20.158Z,5.95
2016-02-29T10:54:20.145Z,6.01
2016-02-29T10:55:20.148Z,6.1
2016-02-29T10:56:20.119Z,6.06
2016-02-29T10:57:20.137Z,6.07
2016-02-29T10:58:20.125Z,6.05
2016-02-29T10:59:20.142Z,6.16
2016-02-29T11:00:20.130Z,6.06
2016-02-29T11:01:20.148Z,6.07
2016-02-29T11:02:20.151Z,6.01
2016-02-29T11:03:20.138Z,6.06
2016-02-29T11:04:20.156Z,6.12
2016-02-29T11:05:20.133Z,6.06
2016-02-29T11:06:20.132Z,6.12
2016-02-29T11:07:20.124Z,6.25
2016-02-29T11:08:20.116Z,6.2
2016-02-29T11:09:20.092Z,6.28
2016-02-29T11:10:20.099Z,6.32
2016-02-29T11:11:20.076Z,6.31
2016-02-29T11:12:20.091Z,6.35
2016-02-29T11:13:20.074Z,6.36
2016-02-29T11:14:20.088Z,6.44
2016-02-29T11:15:20.072Z,6.39
2016-02-29T11:16:20.071Z,6.39
2016-02-29T11:17:20.072Z,6.53
2016-02-29T11:18:20.058Z,6.5
2016-02-29T11:19:20.075Z,6.5
2016-02-29T11:20:20.061Z,6.5
2016-02-29T11:21:20.063Z,6.49
2016-02-29T11:22:20.065Z,6.62
2016-02-29T11:23:20.067Z,6.57
2016-02-29T11:24:20.069Z,6.64
2016-02-29T11:25:20.056Z,6.65
2016-02-29T11:26:20.074Z,6.6
2016-02-29T11:27:20.060Z,6.7
2016-02-29T11:28:20.062Z,6.7
2016-02-29T11:29:20.065Z,6.7
2016-02-29T11:30:20.067Z,6.8
2016-02-29T11:31:20.070Z,6.82
2016-02-29T11:32:20.072Z,6.87
2016-02-29T11:33:20.075Z,6.89
2016-02-29T11:34:20.078Z,6.9
2016-02-29T11:35:20.111Z,6.9
2016-02-29T11:36:20.099Z,7
2016-02-29T11:37:20.067Z,6.95
2016-02-29T11:38:20.086Z,7.08
2016-02-29T11:39:20.072Z,7.05
2016-02-29T11:40:20.075Z,7.15
2016-02-29T11:41:20.078Z,7.14
2016-02-29T11:42:20.080Z,7.13
2016-02-29T11:43:20.099Z,7.23
2016-02-29T11:44:20.071Z,7.32
2016-02-29T11:45:20.088Z,7.23
2016-02-29T11:46:20.091Z,7.28
2016-02-29T11:47:20.093Z,7.26
2016-02-29T11:48:20.097Z,7.33
2016-02-29T11:49:20.099Z,7.26
2016-02-29T11:50:20.071Z,7.28
2016-02-29T11:51:20.074Z,7.28
2016-02-29T11:52:20.107Z,7.23
2016-02-29T11:53:20.079Z,7.19
2016-02-29T11:54:22.270Z,7.26
2016-02-29T11:55:20.085Z,7.13
2016-02-29T11:56:20.087Z,7.19
2016-02-29T11:57:20.075Z,7.13
2016-02-29T11:58:20.123Z,7.14
2016-02-29T11:59:20.080Z,7.18
2016-02-29T12:00:20.083Z,7.15
2016-02-29T12:01:20.101Z,7.15
2016-02-29T12:02:20.088Z,7.18
2016-02-29T12:03:20.106Z,7.18
2016-02-29T12:04:20.077Z,7.15
2016-02-29T12:05:20.080Z,7.08
2016-02-29T12:06:20.083Z,7.11
2016-02-29T12:07:20.086Z,7.15
2016-02-29T12:08:20.089Z,7.08
2016-02-29T12:09:20.091Z,7.1
2016-02-29T12:10:20.094Z,7.01
2016-02-29T12:11:20.096Z,6.93
2016-02-29T12:12:20.099Z,6.8
2016-02-29T12:13:20.133Z,6.75
2016-02-29T12:14:20.089Z,6.71
2016-02-29T12:15:20.123Z,6.72
2016-02-29T12:16:20.126Z,6.71
2016-02-29T12:17:20.097Z,6.7
2016-02-29T12:18:20.100Z,6.78
2016-02-29T12:19:20.102Z,6.83
2016-02-29T12:20:20.105Z,6.8
2016-02-29T12:21:20.405Z,6.7
2016-02-29T12:22:20.110Z,6.67
2016-02-29T12:23:20.113Z,6.71
2016-02-29T12:24:20.101Z,6.57
2016-02-29T12:25:20.103Z,6.64
2016-02-29T12:26:20.106Z,6.67
2016-02-29T12:27:20.092Z,6.64
2016-02-29T12:28:20.142Z,6.71
2016-02-29T12:29:20.114Z,6.8
2016-02-29T12:30:20.178Z,6.87
2016-02-29T12:31:20.119Z,6.93
2016-02-29T12:32:20.090Z,7.1
2016-02-29T12:33:20.124Z,7.26
2016-02-29T12:34:20.128Z,7.22
2016-02-29T12:35:20.114Z,7.36
2016-02-29T12:36:20.117Z,7.46
2016-02-29T12:37:20.104Z,7.5
2016-02-29T12:38:20.106Z,7.41
2016-02-29T12:39:20.109Z,7.53
2016-02-29T12:40:20.111Z,7.48
2016-02-29T12:41:20.115Z,7.44
2016-02-29T12:42:20.117Z,7.41
2016-02-29T12:43:20.152Z,7.46
2016-02-29T12:44:20.122Z,7.37
2016-02-29T12:45:20.125Z,7.37
2016-02-29T12:46:20.127Z,7.32
2016-02-29T12:47:20.131Z,7.32
2016-02-29T12:48:20.118Z,7.41
2016-02-29T12:49:20.121Z,7.48
2016-02-29T12:50:20.138Z,7.37
2016-02-29T12:51:20.126Z,7.37
2016-02-29T12:52:20.129Z,7.4
2016-02-29T12:53:20.132Z,7.48
2016-02-29T12:54:20.118Z,7.4
2016-02-29T12:55:20.121Z,7.33
2016-02-29T12:56:20.124Z,7.31
2016-02-29T12:57:20.126Z,7.21
2016-02-29T12:58:20.129Z,7.29
2016-02-29T12:59:20.147Z,7.15
2016-02-29T13:00:20.134Z,7.14
2016-02-29T13:01:20.137Z,7.11
2016-02-29T13:02:20.140Z,7.07
2016-02-29T13:03:20.142Z,7
2016-02-29T13:04:20.145Z,7.03
2016-02-29T13:05:20.138Z,7.03
2016-02-29T13:06:20.141Z,7.08
2016-02-29T13:07:20.143Z,7.07
2016-02-29T13:08:20.162Z,7.11
2016-02-29T13:09:20.133Z,7.11
2016-02-29T13:10:20.136Z,7.04
2016-02-29T13:11:20.139Z,7.07
2016-02-29T13:12:20.142Z,7.05
2016-02-29T13:13:20.145Z,7.08
2016-02-29T13:14:20.147Z,6.97
2016-02-29T13:15:20.150Z,6.92
2016-02-29T13:16:20.183Z,6.92
2016-02-29T13:17:20.139Z,6.72
2016-02-29T13:18:20.158Z,6.71
2016-02-29T13:19:20.161Z,6.6
2016-02-29T13:20:20.147Z,6.6
2016-02-29T13:21:20.166Z,6.5
2016-02-29T13:22:20.152Z,6.56
2016-02-29T13:23:20.155Z,6.6
2016-02-29T13:24:20.158Z,6.52
2016-02-29T13:25:20.146Z,6.43
2016-02-29T13:26:20.149Z,6.5
2016-02-29T13:27:20.182Z,6.6
2016-02-29T13:28:20.169Z,6.59
2016-02-29T13:29:20.156Z,6.67
2016-02-29T13:30:20.174Z,6.62
2016-02-29T13:31:20.162Z,6.72
2016-02-29T13:32:20.165Z,6.7
2016-02-29T13:33:20.182Z,6.82
2016-02-29T13:34:20.170Z,6.71
2016-02-29T13:35:20.173Z,6.7
2016-02-29T13:36:20.159Z,6.71
2016-02-29T13:37:20.162Z,6.68
2016-02-29T13:38:20.181Z,6.62
2016-02-29T13:39:20.230Z,6.47
2016-02-29T13:40:20.186Z,6.49
2016-02-29T13:41:20.204Z,6.59
2016-02-29T13:42:20.159Z,6.41
2016-02-29T13:43:20.210Z,6.36
2016-02-29T13:44:20.181Z,6.38
2016-02-29T13:45:20.184Z,6.31
2016-02-29T13:46:20.170Z,6.28
2016-02-29T13:47:20.173Z,6.35
2016-02-29T13:48:20.175Z,6.39
2016-02-29T13:49:20.178Z,6.49
2016-02-29T13:50:20.180Z,6.44
2016-02-29T13:51:20.169Z,6.49